sensor_id;sensor_type;location;lat;lon;timestamp;P1;durP1;ratioP1;P2;durP2;ratioP2
34278;SDS011;20538;51.528;9.942;2022-10-16T00:01:21;3.13;;;1.98;;
34278;SDS011;20538;51.528;9.942;2022-10-16T00:03:49;8.30;;;2.33;;
34278;SDS011;20538;51.528;9.942;2022-10-16T00:06:15;8.15;;;2.15;;
34278;SDS011;20538;51.528;9.942;2022-10-16T00:08:42;3.17;;;2.38;;
34278;SDS011;20538;51.528;9.942;2022-10-16T00:11:10;4.90;;;2.20;;
34278;SDS011;20538;51.528;9.942;2022-10-16T00:13:38;4.40;;;2.53;;
34278;SDS011;20538;51.528;9.942;2022-10-16T00:16:05;2.40;;;2.20;;
34278;SDS011;20538;51.528;9.942;2022-10-16T00:18:31;5.40;;;2.30;;
34278;SDS011;20538;51.528;9.942;2022-10-16T00:21:04;2.53;;;2.03;;
34278;SDS011;20538;51.528;9.942;2022-10-16T00:23:31;3.92;;;2.35;;
34278;SDS011;20538;51.528;9.942;2022-10-16T00:25:58;3.90;;;2.38;;
34278;SDS011;20538;51.528;9.942;2022-10-16T00:28:25;2.08;;;1.85;;
34278;SDS011;20538;51.528;9.942;2022-10-16T00:30:52;2.65;;;2.20;;
34278;SDS011;20538;51.528;9.942;2022-10-16T00:33:18;5.88;;;2.13;;
34278;SDS011;20538;51.528;9.942;2022-10-16T00:35:44;2.22;;;2.00;;
34278;SDS011;20538;51.528;9.942;2022-10-16T00:38:10;3.67;;;2.20;;
34278;SDS011;20538;51.528;9.942;2022-10-16T00:40:36;3.45;;;2.05;;
34278;SDS011;20538;51.528;9.942;2022-10-16T00:43:02;3.10;;;2.22;;
34278;SDS011;20538;51.528;9.942;2022-10-16T00:45:29;1.88;;;1.73;;
34278;SDS011;20538;51.528;9.942;2022-10-16T00:47:55;4.50;;;2.30;;
34278;SDS011;20538;51.528;9.942;2022-10-16T00:50:24;3.15;;;2.30;;
34278;SDS011;20538;51.528;9.942;2022-10-16T00:52:56;3.95;;;2.22;;
34278;SDS011;20538;51.528;9.942;2022-10-16T00:55:23;4.53;;;2.10;;
34278;SDS011;20538;51.528;9.942;2022-10-16T00:57:50;4.22;;;2.20;;
34278;SDS011;20538;51.528;9.942;2022-10-16T01:00:18;2.58;;;2.38;;
34278;SDS011;20538;51.528;9.942;2022-10-16T01:02:51;4.43;;;1.98;;
34278;SDS011;20538;51.528;9.942;2022-10-16T01:05:30;2.67;;;1.92;;
34278;SDS011;20538;51.528;9.942;2022-10-16T01:13:10;3.10;;;2.50;;
34278;SDS011;20538;51.528;9.942;2022-10-16T01:19:01;2.65;;;2.00;;
34278;SDS011;20538;51.528;9.942;2022-10-16T01:21:51;5.65;;;2.08;;
34278;SDS011;20538;51.528;9.942;2022-10-16T01:24:31;5.07;;;2.08;;
34278;SDS011;20538;51.528;9.942;2022-10-16T01:27:07;6.68;;;2.22;;
34278;SDS011;20538;51.528;9.942;2022-10-16T01:29:53;4.97;;;2.20;;
34278;SDS011;20538;51.528;9.942;2022-10-16T01:34:47;4.03;;;2.15;;
34278;SDS011;20538;51.528;9.942;2022-10-16T01:37:18;2.53;;;2.30;;
34278;SDS011;20538;51.528;9.942;2022-10-16T01:39:50;2.22;;;2.00;;
34278;SDS011;20538;51.528;9.942;2022-10-16T01:42:21;2.05;;;1.85;;
34278;SDS011;20538;51.528;9.942;2022-10-16T01:44:48;2.50;;;2.00;;
34278;SDS011;20538;51.528;9.942;2022-10-16T01:47:16;3.63;;;2.00;;
34278;SDS011;20538;51.528;9.942;2022-10-16T01:49:44;2.88;;;2.35;;
34278;SDS011;20538;51.528;9.942;2022-10-16T01:52:13;3.63;;;1.98;;
34278;SDS011;20538;51.528;9.942;2022-10-16T01:54:43;2.28;;;2.00;;
34278;SDS011;20538;51.528;9.942;2022-10-16T01:57:12;2.65;;;2.28;;
34278;SDS011;20538;51.528;9.942;2022-10-16T01:59:42;3.45;;;2.42;;
34278;SDS011;20538;51.528;9.942;2022-10-16T02:02:15;2.67;;;2.13;;
34278;SDS011;20538;51.528;9.942;2022-10-16T02:04:47;2.83;;;2.03;;
34278;SDS011;20538;51.528;9.942;2022-10-16T02:07:18;2.70;;;2.00;;
34278;SDS011;20538;51.528;9.942;2022-10-16T02:09:44;2.30;;;1.92;;
34278;SDS011;20538;51.528;9.942;2022-10-16T02:12:12;6.85;;;2.35;;
34278;SDS011;20538;51.528;9.942;2022-10-16T02:14:45;3.83;;;2.00;;
34278;SDS011;20538;51.528;9.942;2022-10-16T02:17:12;6.20;;;2.25;;
34278;SDS011;20538;51.528;9.942;2022-10-16T02:19:40;6.20;;;2.45;;
34278;SDS011;20538;51.528;9.942;2022-10-16T02:22:07;3.97;;;2.05;;
34278;SDS011;20538;51.528;9.942;2022-10-16T02:24:39;2.75;;;2.05;;
34278;SDS011;20538;51.528;9.942;2022-10-16T02:27:27;2.20;;;2.10;;
34278;SDS011;20538;51.528;9.942;2022-10-16T02:30:07;5.80;;;2.10;;
34278;SDS011;20538;51.528;9.942;2022-10-16T02:32:54;2.20;;;2.10;;
34278;SDS011;20538;51.528;9.942;2022-10-16T02:35:23;3.50;;;2.13;;
34278;SDS011;20538;51.528;9.942;2022-10-16T02:37:49;2.67;;;2.33;;
34278;SDS011;20538;51.528;9.942;2022-10-16T02:40:17;2.20;;;2.00;;
34278;SDS011;20538;51.528;9.942;2022-10-16T02:42:49;2.80;;;2.05;;
34278;SDS011;20538;51.528;9.942;2022-10-16T02:45:17;2.88;;;2.25;;
34278;SDS011;20538;51.528;9.942;2022-10-16T02:47:43;3.35;;;2.20;;
34278;SDS011;20538;51.528;9.942;2022-10-16T02:50:09;6.30;;;2.40;;
34278;SDS011;20538;51.528;9.942;2022-10-16T02:52:35;3.67;;;2.20;;
34278;SDS011;20538;51.528;9.942;2022-10-16T02:55:00;5.68;;;2.10;;
34278;SDS011;20538;51.528;9.942;2022-10-16T02:57:26;2.78;;;2.08;;
34278;SDS011;20538;51.528;9.942;2022-10-16T02:59:52;4.22;;;2.40;;
34278;SDS011;20538;51.528;9.942;2022-10-16T03:02:18;3.88;;;2.13;;
34278;SDS011;20538;51.528;9.942;2022-10-16T03:04:44;3.58;;;2.22;;
34278;SDS011;20538;51.528;9.942;2022-10-16T03:07:10;2.42;;;2.22;;
34278;SDS011;20538;51.528;9.942;2022-10-16T03:09:38;3.58;;;1.90;;
34278;SDS011;20538;51.528;9.942;2022-10-16T03:12:07;3.05;;;2.17;;
34278;SDS011;20538;51.528;9.942;2022-10-16T03:14:33;2.00;;;1.80;;
34278;SDS011;20538;51.528;9.942;2022-10-16T03:16:58;3.65;;;2.22;;
34278;SDS011;20538;51.528;9.942;2022-10-16T03:27:20;1.90;;;1.80;;
34278;SDS011;20538;51.528;9.942;2022-10-16T03:45:43;3.10;;;2.30;;
34278;SDS011;20538;51.528;9.942;2022-10-16T03:52:08;3.13;;;2.58;;
34278;SDS011;20538;51.528;9.942;2022-10-16T03:55:40;6.22;;;2.60;;
34278;SDS011;20538;51.528;9.942;2022-10-16T03:58:41;3.03;;;2.75;;
34278;SDS011;20538;51.528;9.942;2022-10-16T04:01:18;3.33;;;3.00;;
34278;SDS011;20538;51.528;9.942;2022-10-16T04:03:44;3.42;;;2.70;;
34278;SDS011;20538;51.528;9.942;2022-10-16T04:06:14;6.78;;;3.00;;
34278;SDS011;20538;51.528;9.942;2022-10-16T04:08:42;4.88;;;2.88;;
34278;SDS011;20538;51.528;9.942;2022-10-16T04:11:18;8.13;;;3.08;;
34278;SDS011;20538;51.528;9.942;2022-10-16T04:13:58;3.22;;;2.92;;
34278;SDS011;20538;51.528;9.942;2022-10-16T04:16:24;4.65;;;3.40;;
34278;SDS011;20538;51.528;9.942;2022-10-16T04:18:50;3.92;;;3.05;;
34278;SDS011;20538;51.528;9.942;2022-10-16T04:21:22;4.78;;;3.30;;
34278;SDS011;20538;51.528;9.942;2022-10-16T04:23:55;7.85;;;3.10;;
34278;SDS011;20538;51.528;9.942;2022-10-16T04:26:23;6.18;;;3.53;;
34278;SDS011;20538;51.528;9.942;2022-10-16T04:28:49;4.93;;;3.13;;
34278;SDS011;20538;51.528;9.942;2022-10-16T04:31:17;3.05;;;2.78;;
34278;SDS011;20538;51.528;9.942;2022-10-16T04:33:43;4.97;;;2.83;;
34278;SDS011;20538;51.528;9.942;2022-10-16T04:36:21;3.05;;;2.72;;
34278;SDS011;20538;51.528;9.942;2022-10-16T04:38:50;3.70;;;2.60;;
34278;SDS011;20538;51.528;9.942;2022-10-16T04:41:21;7.13;;;2.63;;
34278;SDS011;20538;51.528;9.942;2022-10-16T04:43:49;3.08;;;2.78;;
34278;SDS011;20538;51.528;9.942;2022-10-16T04:46:23;4.28;;;2.83;;
34278;SDS011;20538;51.528;9.942;2022-10-16T04:48:56;12.73;;;3.38;;
34278;SDS011;20538;51.528;9.942;2022-10-16T04:51:22;3.10;;;2.72;;
34278;SDS011;20538;51.528;9.942;2022-10-16T04:53:47;5.00;;;2.83;;
34278;SDS011;20538;51.528;9.942;2022-10-16T04:56:13;3.35;;;2.65;;
34278;SDS011;20538;51.528;9.942;2022-10-16T04:58:42;3.22;;;2.40;;
34278;SDS011;20538;51.528;9.942;2022-10-16T05:01:28;3.03;;;2.30;;
34278;SDS011;20538;51.528;9.942;2022-10-16T05:04:03;3.20;;;2.20;;
34278;SDS011;20538;51.528;9.942;2022-10-16T05:06:34;4.05;;;2.30;;
34278;SDS011;20538;51.528;9.942;2022-10-16T05:09:03;5.70;;;2.15;;
34278;SDS011;20538;51.528;9.942;2022-10-16T05:11:29;1.88;;;1.73;;
34278;SDS011;20538;51.528;9.942;2022-10-16T05:13:55;4.80;;;2.60;;
34278;SDS011;20538;51.528;9.942;2022-10-16T05:16:27;3.65;;;2.20;;
34278;SDS011;20538;51.528;9.942;2022-10-16T05:18:52;2.85;;;1.85;;
34278;SDS011;20538;51.528;9.942;2022-10-16T05:21:24;3.70;;;1.70;;
34278;SDS011;20538;51.528;9.942;2022-10-16T05:23:57;3.38;;;2.15;;
34278;SDS011;20538;51.528;9.942;2022-10-16T05:26:50;5.40;;;1.67;;
34278;SDS011;20538;51.528;9.942;2022-10-16T05:29:19;3.00;;;2.00;;
34278;SDS011;20538;51.528;9.942;2022-10-16T05:31:56;1.90;;;1.55;;
34278;SDS011;20538;51.528;9.942;2022-10-16T05:34:28;3.83;;;1.95;;
34278;SDS011;20538;51.528;9.942;2022-10-16T05:39:51;3.33;;;1.63;;
34278;SDS011;20538;51.528;9.942;2022-10-16T05:42:27;2.72;;;1.70;;
34278;SDS011;20538;51.528;9.942;2022-10-16T05:45:02;3.78;;;1.25;;
34278;SDS011;20538;51.528;9.942;2022-10-16T05:47:37;1.63;;;1.38;;
34278;SDS011;20538;51.528;9.942;2022-10-16T05:50:03;2.10;;;1.67;;
34278;SDS011;20538;51.528;9.942;2022-10-16T05:52:43;3.08;;;1.85;;
34278;SDS011;20538;51.528;9.942;2022-10-16T05:55:22;6.82;;;1.60;;
34278;SDS011;20538;51.528;9.942;2022-10-16T05:57:48;4.65;;;1.45;;
34278;SDS011;20538;51.528;9.942;2022-10-16T06:00:21;3.15;;;1.70;;
34278;SDS011;20538;51.528;9.942;2022-10-16T06:02:49;6.10;;;1.63;;
34278;SDS011;20538;51.528;9.942;2022-10-16T06:05:29;2.42;;;1.30;;
34278;SDS011;20538;51.528;9.942;2022-10-16T06:08:06;2.85;;;1.42;;
34278;SDS011;20538;51.528;9.942;2022-10-16T06:10:38;4.93;;;1.70;;
34278;SDS011;20538;51.528;9.942;2022-10-16T06:13:03;3.15;;;1.40;;
34278;SDS011;20538;51.528;9.942;2022-10-16T06:15:34;4.30;;;1.40;;
34278;SDS011;20538;51.528;9.942;2022-10-16T06:18:21;4.68;;;1.38;;
34278;SDS011;20538;51.528;9.942;2022-10-16T06:20:53;3.92;;;1.70;;
34278;SDS011;20538;51.528;9.942;2022-10-16T06:23:21;1.40;;;1.30;;
34278;SDS011;20538;51.528;9.942;2022-10-16T06:25:48;1.35;;;1.20;;
34278;SDS011;20538;51.528;9.942;2022-10-16T06:28:19;3.40;;;1.65;;
34278;SDS011;20538;51.528;9.942;2022-10-16T06:30:45;1.40;;;1.30;;
34278;SDS011;20538;51.528;9.942;2022-10-16T06:33:13;1.55;;;1.40;;
34278;SDS011;20538;51.528;9.942;2022-10-16T06:35:50;1.63;;;1.40;;
34278;SDS011;20538;51.528;9.942;2022-10-16T06:38:20;3.65;;;1.70;;
34278;SDS011;20538;51.528;9.942;2022-10-16T06:40:55;4.47;;;1.33;;
34278;SDS011;20538;51.528;9.942;2022-10-16T06:43:27;2.78;;;1.75;;
34278;SDS011;20538;51.528;9.942;2022-10-16T06:46:02;2.10;;;1.40;;
34278;SDS011;20538;51.528;9.942;2022-10-16T06:48:33;2.13;;;1.10;;
34278;SDS011;20538;51.528;9.942;2022-10-16T06:51:03;3.72;;;1.40;;
34278;SDS011;20538;51.528;9.942;2022-10-16T06:53:41;1.20;;;1.10;;
34278;SDS011;20538;51.528;9.942;2022-10-16T06:56:27;1.63;;;1.00;;
34278;SDS011;20538;51.528;9.942;2022-10-16T06:58:58;1.75;;;1.40;;
34278;SDS011;20538;51.528;9.942;2022-10-16T07:01:34;2.53;;;1.40;;
34278;SDS011;20538;51.528;9.942;2022-10-16T07:04:00;2.95;;;1.08;;
34278;SDS011;20538;51.528;9.942;2022-10-16T07:06:34;3.95;;;1.50;;
34278;SDS011;20538;51.528;9.942;2022-10-16T07:09:12;3.90;;;1.48;;
34278;SDS011;20538;51.528;9.942;2022-10-16T07:11:51;1.77;;;1.20;;
34278;SDS011;20538;51.528;9.942;2022-10-16T07:14:28;1.83;;;1.52;;
34278;SDS011;20538;51.528;9.942;2022-10-16T07:17:03;1.80;;;1.55;;
34278;SDS011;20538;51.528;9.942;2022-10-16T07:19:29;3.72;;;1.50;;
34278;SDS011;20538;51.528;9.942;2022-10-16T07:21:57;4.30;;;2.03;;
34278;SDS011;20538;51.528;9.942;2022-10-16T07:24:25;4.32;;;1.83;;
34278;SDS011;20538;51.528;9.942;2022-10-16T07:27:01;3.40;;;1.67;;
34278;SDS011;20538;51.528;9.942;2022-10-16T07:30:00;3.25;;;1.70;;
34278;SDS011;20538;51.528;9.942;2022-10-16T07:33:03;2.90;;;1.65;;
34278;SDS011;20538;51.528;9.942;2022-10-16T07:35:54;3.22;;;1.60;;
34278;SDS011;20538;51.528;9.942;2022-10-16T07:38:31;3.28;;;1.80;;
34278;SDS011;20538;51.528;9.942;2022-10-16T07:41:44;2.05;;;1.67;;
34278;SDS011;20538;51.528;9.942;2022-10-16T07:44:37;3.38;;;1.30;;
34278;SDS011;20538;51.528;9.942;2022-10-16T07:47:13;3.17;;;1.00;;
34278;SDS011;20538;51.528;9.942;2022-10-16T07:49:44;1.98;;;1.40;;
34278;SDS011;20538;51.528;9.942;2022-10-16T07:52:16;1.75;;;1.10;;
34278;SDS011;20538;51.528;9.942;2022-10-16T07:54:44;3.25;;;1.55;;
34278;SDS011;20538;51.528;9.942;2022-10-16T07:57:10;2.35;;;1.40;;
34278;SDS011;20538;51.528;9.942;2022-10-16T07:59:45;1.60;;;1.20;;
34278;SDS011;20538;51.528;9.942;2022-10-16T08:02:16;2.72;;;1.10;;
34278;SDS011;20538;51.528;9.942;2022-10-16T08:04:46;3.95;;;1.58;;
34278;SDS011;20538;51.528;9.942;2022-10-16T08:07:15;1.38;;;1.23;;
34278;SDS011;20538;51.528;9.942;2022-10-16T08:09:40;1.67;;;1.58;;
34278;SDS011;20538;51.528;9.942;2022-10-16T08:12:09;1.73;;;1.48;;
34278;SDS011;20538;51.528;9.942;2022-10-16T08:14:37;2.30;;;1.60;;
34278;SDS011;20538;51.528;9.942;2022-10-16T08:17:06;2.38;;;1.50;;
34278;SDS011;20538;51.528;9.942;2022-10-16T08:19:39;2.33;;;1.70;;
34278;SDS011;20538;51.528;9.942;2022-10-16T08:22:23;2.88;;;1.33;;
34278;SDS011;20538;51.528;9.942;2022-10-16T08:24:58;3.75;;;1.20;;
34278;SDS011;20538;51.528;9.942;2022-10-16T08:30:14;1.20;;;1.10;;
34278;SDS011;20538;51.528;9.942;2022-10-16T08:32:41;2.42;;;1.20;;
34278;SDS011;20538;51.528;9.942;2022-10-16T08:35:08;1.63;;;1.25;;
34278;SDS011;20538;51.528;9.942;2022-10-16T08:37:36;2.83;;;1.10;;
34278;SDS011;20538;51.528;9.942;2022-10-16T08:40:03;2.00;;;0.93;;
34278;SDS011;20538;51.528;9.942;2022-10-16T08:42:52;1.88;;;1.20;;
34278;SDS011;20538;51.528;9.942;2022-10-16T08:46:04;1.30;;;1.00;;
34278;SDS011;20538;51.528;9.942;2022-10-16T08:51:15;4.18;;;1.15;;
34278;SDS011;20538;51.528;9.942;2022-10-16T08:56:22;3.08;;;1.00;;
34278;SDS011;20538;51.528;9.942;2022-10-16T08:58:57;1.17;;;1.00;;
34278;SDS011;20538;51.528;9.942;2022-10-16T09:01:24;4.05;;;1.10;;
34278;SDS011;20538;51.528;9.942;2022-10-16T09:18:12;1.25;;;0.85;;
34278;SDS011;20538;51.528;9.942;2022-10-16T09:21:06;1.00;;;0.75;;
34278;SDS011;20538;51.528;9.942;2022-10-16T09:23:41;1.05;;;0.95;;
34278;SDS011;20538;51.528;9.942;2022-10-16T09:26:11;1.90;;;1.05;;
34278;SDS011;20538;51.528;9.942;2022-10-16T09:28:39;1.52;;;0.90;;
34278;SDS011;20538;51.528;9.942;2022-10-16T09:31:07;3.35;;;0.73;;
34278;SDS011;20538;51.528;9.942;2022-10-16T09:34:04;1.58;;;0.90;;
34278;SDS011;20538;51.528;9.942;2022-10-16T09:36:35;4.05;;;1.13;;
34278;SDS011;20538;51.528;9.942;2022-10-16T09:39:08;4.30;;;1.00;;
34278;SDS011;20538;51.528;9.942;2022-10-16T09:41:37;2.92;;;0.90;;
34278;SDS011;20538;51.528;9.942;2022-10-16T09:44:18;2.10;;;1.00;;
34278;SDS011;20538;51.528;9.942;2022-10-16T09:46:48;1.48;;;0.80;;
34278;SDS011;20538;51.528;9.942;2022-10-16T09:49:23;1.73;;;0.90;;
34278;SDS011;20538;51.528;9.942;2022-10-16T09:51:51;1.85;;;1.10;;
34278;SDS011;20538;51.528;9.942;2022-10-16T09:54:28;1.05;;;0.73;;
34278;SDS011;20538;51.528;9.942;2022-10-16T09:57:03;4.00;;;1.02;;
34278;SDS011;20538;51.528;9.942;2022-10-16T09:59:30;0.88;;;0.82;;
34278;SDS011;20538;51.528;9.942;2022-10-16T10:01:56;3.35;;;0.90;;
34278;SDS011;20538;51.528;9.942;2022-10-16T10:04:36;6.20;;;1.17;;
34278;SDS011;20538;51.528;9.942;2022-10-16T10:07:16;1.50;;;0.82;;
34278;SDS011;20538;51.528;9.942;2022-10-16T10:09:44;1.25;;;0.82;;
34278;SDS011;20538;51.528;9.942;2022-10-16T10:12:21;3.10;;;1.17;;
34278;SDS011;20538;51.528;9.942;2022-10-16T10:14:52;3.30;;;1.70;;
34278;SDS011;20538;51.528;9.942;2022-10-16T10:17:27;2.17;;;1.20;;
34278;SDS011;20538;51.528;9.942;2022-10-16T10:19:54;2.88;;;1.50;;
34278;SDS011;20538;51.528;9.942;2022-10-16T10:22:29;3.70;;;1.10;;
34278;SDS011;20538;51.528;9.942;2022-10-16T10:27:58;2.65;;;1.20;;
34278;SDS011;20538;51.528;9.942;2022-10-16T10:33:21;1.00;;;0.90;;
34278;SDS011;20538;51.528;9.942;2022-10-16T10:46:55;2.17;;;1.08;;
34278;SDS011;20538;51.528;9.942;2022-10-16T10:49:31;1.33;;;0.80;;
34278;SDS011;20538;51.528;9.942;2022-10-16T11:08:09;2.22;;;0.60;;
34278;SDS011;20538;51.528;9.942;2022-10-16T11:10:45;1.67;;;1.10;;
34278;SDS011;20538;51.528;9.942;2022-10-16T11:13:32;4.10;;;1.08;;
34278;SDS011;20538;51.528;9.942;2022-10-16T11:16:28;2.00;;;1.00;;
34278;SDS011;20538;51.528;9.942;2022-10-16T11:21:28;2.30;;;0.90;;
34278;SDS011;20538;51.528;9.942;2022-10-16T11:23:58;3.33;;;0.70;;
34278;SDS011;20538;51.528;9.942;2022-10-16T11:26:33;4.07;;;1.77;;
34278;SDS011;20538;51.528;9.942;2022-10-16T11:29:04;5.35;;;0.90;;
34278;SDS011;20538;51.528;9.942;2022-10-16T11:31:57;1.92;;;0.80;;
34278;SDS011;20538;51.528;9.942;2022-10-16T11:34:38;1.20;;;0.70;;
34278;SDS011;20538;51.528;9.942;2022-10-16T11:37:15;4.25;;;0.85;;
34278;SDS011;20538;51.528;9.942;2022-10-16T11:39:45;2.97;;;1.00;;
34278;SDS011;20538;51.528;9.942;2022-10-16T11:42:22;0.73;;;0.73;;
34278;SDS011;20538;51.528;9.942;2022-10-16T11:48:04;1.73;;;0.65;;
34278;SDS011;20538;51.528;9.942;2022-10-16T11:56:27;1.25;;;0.80;;
34278;SDS011;20538;51.528;9.942;2022-10-16T11:58:57;3.28;;;0.80;;
34278;SDS011;20538;51.528;9.942;2022-10-16T12:01:31;2.97;;;0.50;;
34278;SDS011;20538;51.528;9.942;2022-10-16T12:04:21;1.00;;;0.73;;
34278;SDS011;20538;51.528;9.942;2022-10-16T12:06:52;0.55;;;0.55;;
34278;SDS011;20538;51.528;9.942;2022-10-16T12:09:30;1.25;;;0.90;;
34278;SDS011;20538;51.528;9.942;2022-10-16T12:11:58;1.85;;;0.70;;
34278;SDS011;20538;51.528;9.942;2022-10-16T12:17:02;4.28;;;0.70;;
34278;SDS011;20538;51.528;9.942;2022-10-16T12:22:40;1.27;;;0.60;;
34278;SDS011;20538;51.528;9.942;2022-10-16T12:25:30;1.58;;;0.90;;
34278;SDS011;20538;51.528;9.942;2022-10-16T12:30:32;3.35;;;0.80;;
34278;SDS011;20538;51.528;9.942;2022-10-16T12:33:15;3.15;;;0.50;;
34278;SDS011;20538;51.528;9.942;2022-10-16T12:35:47;1.52;;;0.52;;
34278;SDS011;20538;51.528;9.942;2022-10-16T12:41:10;0.98;;;0.60;;
34278;SDS011;20538;51.528;9.942;2022-10-16T12:43:46;1.65;;;0.40;;
34278;SDS011;20538;51.528;9.942;2022-10-16T12:48:39;2.65;;;0.63;;
34278;SDS011;20538;51.528;9.942;2022-10-16T12:51:33;0.40;;;0.40;;
34278;SDS011;20538;51.528;9.942;2022-10-16T12:54:01;1.65;;;0.55;;
34278;SDS011;20538;51.528;9.942;2022-10-16T13:07:56;3.55;;;0.40;;
34278;SDS011;20538;51.528;9.942;2022-10-16T13:27:44;1.85;;;0.50;;
34278;SDS011;20538;51.528;9.942;2022-10-16T13:30:21;0.98;;;0.50;;
34278;SDS011;20538;51.528;9.942;2022-10-16T13:32:50;2.30;;;0.60;;
34278;SDS011;20538;51.528;9.942;2022-10-16T13:35:28;5.43;;;0.60;;
34278;SDS011;20538;51.528;9.942;2022-10-16T13:38:05;2.83;;;0.57;;
34278;SDS011;20538;51.528;9.942;2022-10-16T13:46:17;1.23;;;0.70;;
34278;SDS011;20538;51.528;9.942;2022-10-16T13:48:45;3.17;;;0.90;;
34278;SDS011;20538;51.528;9.942;2022-10-16T13:51:22;0.57;;;0.50;;
34278;SDS011;20538;51.528;9.942;2022-10-16T13:53:51;1.23;;;0.60;;
34278;SDS011;20538;51.528;9.942;2022-10-16T13:56:18;1.90;;;0.70;;
34278;SDS011;20538;51.528;9.942;2022-10-16T13:58:46;0.95;;;0.40;;
34278;SDS011;20538;51.528;9.942;2022-10-16T14:01:28;0.65;;;0.50;;
34278;SDS011;20538;51.528;9.942;2022-10-16T14:04:14;1.40;;;0.47;;
34278;SDS011;20538;51.528;9.942;2022-10-16T14:06:42;4.63;;;0.95;;
34278;SDS011;20538;51.528;9.942;2022-10-16T14:09:14;1.98;;;0.50;;
34278;SDS011;20538;51.528;9.942;2022-10-16T14:11:50;1.95;;;0.60;;
34278;SDS011;20538;51.528;9.942;2022-10-16T14:14:22;3.30;;;0.50;;
34278;SDS011;20538;51.528;9.942;2022-10-16T14:16:49;0.40;;;0.30;;
34278;SDS011;20538;51.528;9.942;2022-10-16T14:19:17;2.05;;;0.60;;
34278;SDS011;20538;51.528;9.942;2022-10-16T14:21:47;0.90;;;0.70;;
34278;SDS011;20538;51.528;9.942;2022-10-16T14:24:14;2.03;;;0.65;;
34278;SDS011;20538;51.528;9.942;2022-10-16T14:26:47;1.08;;;0.70;;
34278;SDS011;20538;51.528;9.942;2022-10-16T14:29:15;4.47;;;0.60;;
34278;SDS011;20538;51.528;9.942;2022-10-16T14:31:54;3.75;;;0.60;;
34278;SDS011;20538;51.528;9.942;2022-10-16T14:34:36;2.25;;;0.70;;
34278;SDS011;20538;51.528;9.942;2022-10-16T14:37:24;2.80;;;0.82;;
34278;SDS011;20538;51.528;9.942;2022-10-16T14:39:54;3.72;;;0.60;;
34278;SDS011;20538;51.528;9.942;2022-10-16T14:42:21;1.20;;;0.70;;
34278;SDS011;20538;51.528;9.942;2022-10-16T14:44:52;0.63;;;0.60;;
34278;SDS011;20538;51.528;9.942;2022-10-16T14:47:20;3.00;;;0.80;;
34278;SDS011;20538;51.528;9.942;2022-10-16T14:49:51;1.15;;;0.90;;
34278;SDS011;20538;51.528;9.942;2022-10-16T14:52:18;4.95;;;0.80;;
34278;SDS011;20538;51.528;9.942;2022-10-16T14:54:47;1.60;;;0.70;;
34278;SDS011;20538;51.528;9.942;2022-10-16T14:57:15;2.92;;;0.60;;
34278;SDS011;20538;51.528;9.942;2022-10-16T14:59:46;1.40;;;0.65;;
34278;SDS011;20538;51.528;9.942;2022-10-16T15:04:41;0.98;;;0.60;;
34278;SDS011;20538;51.528;9.942;2022-10-16T15:07:07;1.15;;;0.80;;
34278;SDS011;20538;51.528;9.942;2022-10-16T15:09:33;1.58;;;0.93;;
34278;SDS011;20538;51.528;9.942;2022-10-16T15:11:59;1.23;;;0.80;;
34278;SDS011;20538;51.528;9.942;2022-10-16T15:14:24;2.95;;;0.70;;
34278;SDS011;20538;51.528;9.942;2022-10-16T15:16:50;2.03;;;0.60;;
34278;SDS011;20538;51.528;9.942;2022-10-16T15:19:15;3.53;;;0.80;;
34278;SDS011;20538;51.528;9.942;2022-10-16T15:21:41;0.98;;;0.85;;
34278;SDS011;20538;51.528;9.942;2022-10-16T15:24:09;1.65;;;0.80;;
34278;SDS011;20538;51.528;9.942;2022-10-16T15:26:37;2.00;;;1.00;;
34278;SDS011;20538;51.528;9.942;2022-10-16T15:29:03;2.08;;;1.02;;
34278;SDS011;20538;51.528;9.942;2022-10-16T15:31:29;3.58;;;1.33;;
34278;SDS011;20538;51.528;9.942;2022-10-16T15:33:55;0.95;;;0.90;;
34278;SDS011;20538;51.528;9.942;2022-10-16T15:36:37;0.80;;;0.70;;
34278;SDS011;20538;51.528;9.942;2022-10-16T15:39:03;3.17;;;1.10;;
34278;SDS011;20538;51.528;9.942;2022-10-16T15:41:30;1.15;;;0.68;;
34278;SDS011;20538;51.528;9.942;2022-10-16T15:43:56;3.08;;;1.10;;
34278;SDS011;20538;51.528;9.942;2022-10-16T15:46:22;2.20;;;0.90;;
34278;SDS011;20538;51.528;9.942;2022-10-16T15:48:49;0.82;;;0.82;;
34278;SDS011;20538;51.528;9.942;2022-10-16T15:51:20;2.25;;;0.70;;
34278;SDS011;20538;51.528;9.942;2022-10-16T15:53:46;1.60;;;0.70;;
34278;SDS011;20538;51.528;9.942;2022-10-16T15:56:11;4.63;;;0.90;;
34278;SDS011;20538;51.528;9.942;2022-10-16T15:58:38;4.05;;;1.10;;
34278;SDS011;20538;51.528;9.942;2022-10-16T16:01:04;2.30;;;0.70;;
34278;SDS011;20538;51.528;9.942;2022-10-16T16:03:30;2.25;;;0.90;;
34278;SDS011;20538;51.528;9.942;2022-10-16T16:05:57;1.40;;;0.85;;
34278;SDS011;20538;51.528;9.942;2022-10-16T16:08:23;3.65;;;0.63;;
34278;SDS011;20538;51.528;9.942;2022-10-16T16:11:03;0.82;;;0.70;;
34278;SDS011;20538;51.528;9.942;2022-10-16T16:13:33;2.08;;;0.80;;
34278;SDS011;20538;51.528;9.942;2022-10-16T16:15:59;2.55;;;0.90;;
34278;SDS011;20538;51.528;9.942;2022-10-16T16:18:25;1.70;;;1.08;;
34278;SDS011;20538;51.528;9.942;2022-10-16T16:20:51;0.88;;;0.70;;
34278;SDS011;20538;51.528;9.942;2022-10-16T16:23:17;3.72;;;1.50;;
34278;SDS011;20538;51.528;9.942;2022-10-16T16:25:44;5.15;;;2.00;;
34278;SDS011;20538;51.528;9.942;2022-10-16T16:28:09;6.53;;;2.35;;
34278;SDS011;20538;51.528;9.942;2022-10-16T16:30:39;7.22;;;2.28;;
34278;SDS011;20538;51.528;9.942;2022-10-16T16:33:05;6.78;;;1.92;;
34278;SDS011;20538;51.528;9.942;2022-10-16T16:35:30;3.53;;;2.10;;
34278;SDS011;20538;51.528;9.942;2022-10-16T16:37:56;5.57;;;2.10;;
34278;SDS011;20538;51.528;9.942;2022-10-16T16:40:21;5.60;;;3.10;;
34278;SDS011;20538;51.528;9.942;2022-10-16T16:42:48;9.50;;;4.43;;
34278;SDS011;20538;51.528;9.942;2022-10-16T16:45:13;14.68;;;8.50;;
34278;SDS011;20538;51.528;9.942;2022-10-16T16:47:39;7.97;;;4.47;;
34278;SDS011;20538;51.528;9.942;2022-10-16T16:50:05;5.07;;;2.92;;
34278;SDS011;20538;51.528;9.942;2022-10-16T16:52:32;9.52;;;2.65;;
34278;SDS011;20538;51.528;9.942;2022-10-16T16:54:58;5.85;;;2.33;;
34278;SDS011;20538;51.528;9.942;2022-10-16T16:57:24;10.13;;;3.33;;
34278;SDS011;20538;51.528;9.942;2022-10-16T16:59:49;4.88;;;2.45;;
34278;SDS011;20538;51.528;9.942;2022-10-16T17:02:16;9.20;;;2.80;;
34278;SDS011;20538;51.528;9.942;2022-10-16T17:04:42;4.55;;;3.20;;
34278;SDS011;20538;51.528;9.942;2022-10-16T17:07:08;4.28;;;2.30;;
34278;SDS011;20538;51.528;9.942;2022-10-16T17:09:33;5.05;;;2.88;;
34278;SDS011;20538;51.528;9.942;2022-10-16T17:11:59;7.93;;;2.85;;
34278;SDS011;20538;51.528;9.942;2022-10-16T17:14:25;4.57;;;2.17;;
34278;SDS011;20538;51.528;9.942;2022-10-16T17:16:51;6.97;;;2.67;;
34278;SDS011;20538;51.528;9.942;2022-10-16T17:19:18;5.18;;;2.53;;
34278;SDS011;20538;51.528;9.942;2022-10-16T17:21:45;5.85;;;2.47;;
34278;SDS011;20538;51.528;9.942;2022-10-16T17:24:13;7.22;;;3.70;;
34278;SDS011;20538;51.528;9.942;2022-10-16T17:26:39;5.00;;;3.03;;
34278;SDS011;20538;51.528;9.942;2022-10-16T17:29:09;7.20;;;2.90;;
34278;SDS011;20538;51.528;9.942;2022-10-16T17:31:37;3.10;;;2.00;;
34278;SDS011;20538;51.528;9.942;2022-10-16T17:34:03;5.32;;;2.45;;
34278;SDS011;20538;51.528;9.942;2022-10-16T17:36:31;5.25;;;2.15;;
34278;SDS011;20538;51.528;9.942;2022-10-16T17:38:59;4.45;;;2.88;;
34278;SDS011;20538;51.528;9.942;2022-10-16T17:41:28;8.27;;;3.95;;
34278;SDS011;20538;51.528;9.942;2022-10-16T17:43:55;8.65;;;3.55;;
34278;SDS011;20538;51.528;9.942;2022-10-16T17:46:21;6.97;;;3.30;;
34278;SDS011;20538;51.528;9.942;2022-10-16T17:48:49;5.50;;;2.83;;
34278;SDS011;20538;51.528;9.942;2022-10-16T17:51:17;4.20;;;2.58;;
34278;SDS011;20538;51.528;9.942;2022-10-16T17:53:47;4.15;;;2.70;;